Time;durP1;ratioP1;P1;durP2;ratioP2;P2;SDS_P1;SDS_P2;PMS_P1;PMS_P2;Temp;Humidity;BMP_temperature;BMP_pressure;BME280_temperature;BME280_humidity;BME280_pressure;Samples;Min_cycle;Max_cycle;Signal;HPM_P1;HPM_P2
2021/05/18 00:00:49;;;;;;;13.20;5.20;;;23.00;41.00;;;;;;5075740;28;20396;-67
2021/05/18 00:03:17;;;;;;;14.15;5.32;;;22.90;41.00;;;;;;5075944;28;20047;-67
2021/05/18 00:05:51;;;;;;;16.08;5.78;;;22.90;41.30;;;;;;5075834;28;20067;-67
2021/05/18 00:08:20;;;;;;;16.65;5.43;;;22.90;41.30;;;;;;5075770;28;20082;-67
2021/05/18 00:13:34;;;;;;;11.77;5.25;;;22.80;41.30;;;;;;5075804;28;20105;-67
2021/05/18 00:16:02;;;;;;;21.45;6.38;;;22.70;41.70;;;;;;5074371;28;20102;-66
2021/05/18 00:18:29;;;;;;;15.85;5.50;;;22.70;41.60;;;;;;5074680;28;20024;-68
2021/05/18 00:20:55;;;;;;;19.83;5.13;;;22.70;41.50;;;;;;5083119;28;20404;-67
2021/05/18 00:23:21;;;;;;;13.10;5.45;;;22.70;41.70;;;;;;5093606;28;20032;-69
2021/05/18 00:25:47;;;;;;;18.13;5.65;;;22.70;41.70;;;;;;5094298;28;20082;-69
2021/05/18 00:28:13;;;;;;;16.77;5.82;;;22.60;41.70;;;;;;5094731;28;20064;-66
2021/05/18 00:30:42;;;;;;;13.20;5.68;;;22.60;41.80;;;;;;5095365;28;20024;-67
2021/05/18 00:33:17;;;;;;;13.45;5.50;;;22.50;41.90;;;;;;5094421;28;20407;-69
2021/05/18 00:35:44;;;;;;;13.07;5.72;;;22.50;42.10;;;;;;5094397;28;20047;-68
2021/05/18 00:38:12;;;;;;;16.52;5.38;;;22.40;42.10;;;;;;5095582;28;20119;-68
2021/05/18 00:40:38;;;;;;;14.82;5.43;;;22.40;42.10;;;;;;5094517;28;20511;-68
2021/05/18 00:43:04;;;;;;;14.05;5.65;;;22.30;42.40;;;;;;5094069;28;20032;-67
2021/05/18 00:45:36;;;;;;;11.23;4.70;;;22.30;42.40;;;;;;5094029;28;20494;-68
2021/05/18 00:48:04;;;;;;;17.35;5.35;;;22.30;42.60;;;;;;5077186;28;20506;-68
2021/05/18 00:50:32;;;;;;;15.43;5.53;;;22.20;42.40;;;;;;5093836;28;20037;-67
2021/05/18 00:53:00;;;;;;;12.32;5.45;;;22.20;42.60;;;;;;5093906;28;20519;-67
2021/05/18 00:55:47;;;;;;;14.73;5.18;;;22.20;42.70;;;;;;5078129;28;20043;-67
2021/05/18 01:01:05;;;;;;;13.05;5.53;;;22.10;42.80;;;;;;5095552;28;20119;-68
2021/05/18 01:03:32;;;;;;;11.35;4.95;;;22.10;42.90;;;;;;5093967;28;20028;-68
2021/05/18 01:08:44;;;;;;;13.57;4.75;;;22.10;42.80;;;;;;5093394;28;20488;-67
2021/05/18 01:11:11;;;;;;;12.38;5.25;;;22.10;42.90;;;;;;5094486;28;20052;-66
2021/05/18 01:13:38;;;;;;;14.23;5.32;;;22.00;42.90;;;;;;5095193;28;20063;-66
2021/05/18 01:16:05;;;;;;;13.73;5.63;;;22.00;42.90;;;;;;5094821;28;20031;-67
2021/05/18 01:18:40;;;;;;;12.30;4.78;;;22.00;43.00;;;;;;5095077;28;20032;-67
2021/05/18 01:21:07;;;;;;;10.88;4.88;;;22.00;43.00;;;;;;5084411;28;20088;-66
2021/05/18 01:23:33;;;;;;;13.90;5.40;;;22.00;42.90;;;;;;5073170;28;20040;-67
2021/05/18 01:25:59;;;;;;;13.95;5.10;;;22.00;43.60;;;;;;5074767;28;20040;-66
2021/05/18 01:28:28;;;;;;;14.32;4.95;;;21.90;43.00;;;;;;5090178;28;20048;-68
2021/05/18 01:30:58;;;;;;;10.65;5.03;;;21.90;43.10;;;;;;5089527;28;20040;-68
2021/05/18 01:33:24;;;;;;;14.88;5.22;;;22.00;43.20;;;;;;5090324;28;20044;-68
2021/05/18 01:35:52;;;;;;;13.55;5.25;;;22.00;43.10;;;;;;5089355;28;20056;-68
2021/05/18 01:38:22;;;;;;;11.70;5.15;;;21.90;43.20;;;;;;5072868;28;20044;-68
2021/05/18 01:43:34;;;;;;;15.80;6.28;;;22.00;43.10;;;;;;5073806;28;20040;-67
2021/05/18 01:46:00;;;;;;;13.48;5.50;;;22.00;42.90;;;;;;5072494;28;20140;-67
2021/05/18 01:48:26;;;;;;;14.38;4.88;;;22.00;43.10;;;;;;5072905;28;20036;-66
2021/05/18 01:50:53;;;;;;;8.27;4.50;;;22.00;43.20;;;;;;5073784;28;20039;-67
2021/05/18 01:53:21;;;;;;;11.38;5.15;;;22.00;43.10;;;;;;5072569;28;20067;-67
2021/05/18 01:56:01;;;;;;;11.85;5.05;;;22.00;43.10;;;;;;5073760;28;20045;-67
2021/05/18 01:58:28;;;;;;;14.57;4.97;;;22.10;43.10;;;;;;5089736;28;20032;-68
2021/05/18 02:01:21;;;;;;;16.20;4.68;;;22.00;43.60;;;;;;5073021;28;20036;-68
2021/05/18 02:03:47;;;;;;;10.32;4.78;;;22.00;43.10;;;;;;5089136;28;20128;-68
2021/05/18 02:06:13;;;;;;;15.05;5.22;;;22.00;43.10;;;;;;5072560;28;20496;-69
2021/05/18 02:08:44;;;;;;;14.82;5.28;;;22.00;43.10;;;;;;5073281;28;20569;-67
2021/05/18 02:11:21;;;;;;;14.32;4.82;;;22.00;43.40;;;;;;5072021;28;20055;-69
2021/05/18 02:13:49;;;;;;;10.05;5.45;;;22.00;43.40;;;;;;5072337;28;20447;-68
2021/05/18 02:16:35;;;;;;;8.27;4.53;;;22.00;43.10;;;;;;5071896;28;20033;-68
2021/05/18 02:19:23;;;;;;;13.02;5.00;;;22.20;43.10;;;;;;5071929;28;20037;-69
2021/05/18 02:25:02;;;;;;;14.13;5.30;;;22.60;42.60;;;;;;5057540;28;20044;-68
2021/05/18 02:27:48;;;;;;;12.63;5.43;;;22.80;42.30;;;;;;5073228;28;20128;-67
2021/05/18 02:30:15;;;;;;;15.20;4.82;;;23.00;41.80;;;;;;5088920;28;20401;-68
2021/05/18 02:32:44;;;;;;;17.58;5.05;;;23.10;41.70;;;;;;5071639;28;20130;-67
2021/05/18 02:35:28;;;;;;;9.87;4.90;;;23.20;41.40;;;;;;5073384;28;20161;-66
2021/05/18 02:37:55;;;;;;;12.45;4.78;;;23.40;41.10;;;;;;5071650;28;20404;-67
2021/05/18 02:40:27;;;;;;;9.20;4.95;;;23.60;40.80;;;;;;5072992;28;20496;-67
2021/05/18 02:42:53;;;;;;;14.65;5.18;;;24.00;40.40;;;;;;5071729;28;20408;-67
2021/05/18 02:50:47;;;;;;;13.05;5.13;;;24.80;39.40;;;;;;5071372;28;20513;-68
2021/05/18 02:53:15;;;;;;;12.85;5.22;;;24.80;39.10;;;;;;5071149;28;20075;-67
2021/05/18 02:58:09;;;;;;;11.27;5.30;;;24.40;39.60;;;;;;5072434;28;20443;-68
2021/05/18 03:00:35;;;;;;;12.70;5.60;;;24.10;39.90;;;;;;5071304;28;20041;-68
2021/05/18 03:03:02;;;;;;;10.88;4.65;;;23.90;40.30;;;;;;5071247;28;20043;-68
2021/05/18 03:05:28;;;;;;;17.10;5.15;;;23.80;41.10;;;;;;5072632;28;20041;-68
2021/05/18 03:08:00;;;;;;;14.77;5.60;;;23.70;40.60;;;;;;5088450;28;20036;-69
2021/05/18 03:10:26;;;;;;;16.38;4.82;;;23.50;41.00;;;;;;5072877;28;20503;-66
2021/05/18 03:12:53;;;;;;;14.32;5.45;;;23.50;41.10;;;;;;5073064;28;20141;-68
2021/05/18 03:15:19;;;;;;;16.58;5.30;;;23.40;41.30;;;;;;5072704;28;20183;-67
2021/05/18 03:17:45;;;;;;;16.13;5.30;;;23.30;41.50;;;;;;5065498;28;20028;-68
2021/05/18 03:20:14;;;;;;;11.65;4.90;;;23.20;41.70;;;;;;5073179;28;20043;-67
2021/05/18 03:22:41;;;;;;;18.92;5.68;;;23.20;41.80;;;;;;5088203;28;20028;-67
2021/05/18 03:25:08;;;;;;;11.30;5.00;;;23.20;41.80;;;;;;5084256;28;20089;-67
2021/05/18 03:27:35;;;;;;;11.68;5.15;;;23.10;41.90;;;;;;5081999;28;20032;-65
2021/05/18 03:30:16;;;;;;;14.00;5.32;;;23.10;41.80;;;;;;5080480;28;20041;-66
2021/05/18 03:35:29;;;;;;;13.68;5.88;;;23.10;42.00;;;;;;5054731;28;20048;-71
2021/05/18 03:37:57;;;;;;;15.30;6.00;;;23.30;41.90;;;;;;5058346;28;20029;-71
2021/05/18 03:40:26;;;;;;;12.70;6.10;;;23.60;41.60;;;;;;5076599;28;20111;-69
2021/05/18 03:42:59;;;;;;;14.25;6.70;;;24.10;40.90;;;;;;5076042;28;20123;-69
2021/05/18 03:45:28;;;;;;;12.95;6.32;;;24.70;40.00;;;;;;5075866;28;20370;-69
2021/05/18 03:54:06;;;;;;;13.50;5.93;;;26.20;38.10;;;;;;5052393;28;20098;-69
2021/05/18 04:04:31;;;;;;;14.27;5.38;;;27.40;36.60;;;;;;5094796;28;20039;-73
2021/05/18 04:17:54;;;;;;;;;;;28.80;35.10;;;;;;5075865;28;20478;-65
2021/05/18 04:23:07;;;;;;;13.45;5.40;;;29.50;34.70;;;;;;5075514;28;20032;-66
2021/05/18 04:25:56;;;;;;;16.08;5.20;;;29.80;34.20;;;;;;5077735;28;20119;-64
2021/05/18 04:53:32;;;;;;;13.25;4.90;;;31.80;32.50;;;;;;5075101;28;20489;-67
2021/05/18 05:01:04;;;;;;;14.80;6.18;;;32.10;32.10;;;;;;5075016;28;20036;-65
2021/05/18 05:08:50;;;;;;;14.15;4.85;;;32.60;31.40;;;;;;5073434;28;20032;-66
2021/05/18 05:16:27;;;;;;;14.10;5.45;;;33.30;31.40;;;;;;5074491;28;20028;-69
2021/05/18 05:18:54;;;;;;;16.40;5.40;;;33.60;31.40;;;;;;5074656;28;20057;-69
2021/05/18 05:21:27;;;;;;;9.55;5.32;;;33.90;31.80;;;;;;5074187;28;20037;-71
2021/05/18 05:23:53;;;;;;;14.73;5.03;;;34.20;30.90;;;;;;5072984;28;20127;-70
2021/05/18 05:26:19;;;;;;;17.85;4.95;;;34.30;31.10;;;;;;5074082;28;20448;-69
2021/05/18 05:28:45;;;;;;;14.75;5.35;;;34.60;30.60;;;;;;5072997;28;20120;-69
2021/05/18 05:31:10;;;;;;;13.95;4.97;;;34.50;30.70;;;;;;5074120;28;20037;-71
2021/05/18 05:33:36;;;;;;;13.98;5.18;;;34.60;31.30;;;;;;5074043;28;20037;-70
2021/05/18 05:36:03;;;;;;;14.52;4.72;;;34.80;30.30;;;;;;5074143;28;20055;-71
2021/05/18 05:38:30;;;;;;;12.05;4.85;;;35.00;30.20;;;;;;5074030;28;20036;-70
2021/05/18 05:40:57;;;;;;;14.52;4.85;;;35.10;30.10;;;;;;5073717;28;20484;-66
2021/05/18 05:43:23;;;;;;;17.23;5.30;;;35.30;30.60;;;;;;5074017;28;20048;-68
2021/05/18 05:45:52;;;;;;;10.65;4.60;;;35.40;30.00;;;;;;5074007;28;20174;-68
2021/05/18 05:48:19;;;;;;;13.40;5.80;;;35.50;30.10;;;;;;5074179;28;20029;-68
2021/05/18 05:50:46;;;;;;;16.48;5.45;;;35.70;29.90;;;;;;5072370;28;20036;-69
2021/05/18 05:53:12;;;;;;;13.45;4.80;;;35.90;30.00;;;;;;5073332;28;20477;-69
2021/05/18 05:55:38;;;;;;;13.48;5.15;;;36.00;29.50;;;;;;5072741;28;20036;-68
2021/05/18 05:58:04;;;;;;;15.52;5.07;;;36.10;29.80;;;;;;5073462;28;20046;-68
2021/05/18 06:00:30;;;;;;;14.35;5.07;;;36.00;30.10;;;;;;5073104;28;20025;-70
2021/05/18 06:02:57;;;;;;;13.95;4.93;;;36.00;29.80;;;;;;5074027;28;20047;-70
2021/05/18 06:05:23;;;;;;;13.13;4.80;;;36.10;30.00;;;;;;5072391;28;20488;-70
2021/05/18 06:07:49;;;;;;;11.23;4.53;;;36.10;29.20;;;;;;5073178;28;20127;-69
2021/05/18 06:10:39;;;;;;;14.05;4.03;;;36.00;29.30;;;;;;5073547;28;20079;-69
2021/05/18 06:13:42;;;;;;;12.88;4.28;;;36.00;29.60;;;;;;5073609;28;20048;-67
2021/05/18 06:42:58;;;;;;;15.50;5.07;;;36.20;29.40;;;;;;5072647;28;20048;-68
2021/05/18 06:48:10;;;;;;;19.30;5.25;;;35.80;30.10;;;;;;5071318;28;20033;-67
2021/05/18 06:50:36;;;;;;;12.25;5.15;;;35.80;30.10;;;;;;5054775;28;20048;-69
2021/05/18 06:53:03;;;;;;;13.85;4.70;;;35.70;30.90;;;;;;5054583;28;20040;-65
2021/05/18 06:55:34;;;;;;;14.82;4.95;;;35.80;30.10;;;;;;5072386;28;20044;-67
2021/05/18 06:58:04;;;;;;;11.38;4.45;;;35.80;30.60;;;;;;5072229;28;20032;-64
2021/05/18 07:00:33;;;;;;;14.45;4.68;;;36.00;30.30;;;;;;5072309;28;20060;-65
2021/05/18 07:02:59;;;;;;;11.52;4.35;;;36.10;30.20;;;;;;5071819;28;20558;-65
2021/05/18 07:10:43;;;;;;;;;;;36.00;29.40;;;;;;5073214;28;20051;-66
2021/05/18 07:13:10;;;;;;;13.25;4.93;;;35.60;29.70;;;;;;5070672;28;20442;-65
2021/05/18 07:15:38;;;;;;;15.80;4.45;;;35.30;30.10;;;;;;5071001;28;20496;-66
2021/05/18 07:18:05;;;;;;;15.07;4.30;;;35.30;29.90;;;;;;5072197;28;20040;-66
2021/05/18 07:20:32;;;;;;;15.77;4.80;;;35.20;30.30;;;;;;5087695;28;20506;-66
2021/05/18 07:23:01;;;;;;;13.98;4.70;;;35.00;30.60;;;;;;5072246;28;20109;-66
2021/05/18 07:25:27;;;;;;;13.90;4.72;;;35.00;30.80;;;;;;5071143;28;20554;-65
2021/05/18 07:27:53;;;;;;;10.95;4.70;;;34.90;30.20;;;;;;5071163;28;20047;-65
2021/05/18 07:30:20;;;;;;;19.83;4.43;;;34.70;30.90;;;;;;5054405;28;20131;-67
2021/05/18 07:32:46;;;;;;;16.48;4.57;;;34.60;29.80;;;;;;5054329;28;20105;-66
2021/05/18 07:35:12;;;;;;;12.02;4.93;;;34.30;29.60;;;;;;5072364;28;20047;-65
2021/05/18 07:37:38;;;;;;;11.43;4.82;;;34.10;29.90;;;;;;5071829;28;20079;-65
2021/05/18 07:40:06;;;;;;;14.70;4.47;;;33.80;30.30;;;;;;5071041;28;20062;-64
2021/05/18 07:42:33;;;;;;;10.80;4.30;;;33.80;29.80;;;;;;5070985;28;20044;-66
2021/05/18 07:45:00;;;;;;;15.50;4.43;;;33.70;30.10;;;;;;5071745;28;20489;-67
2021/05/18 07:47:30;;;;;;;17.00;3.92;;;33.50;29.30;;;;;;5072330;28;20400;-65
2021/05/18 07:50:04;;;;;;;14.43;4.90;;;33.30;29.20;;;;;;5071863;28;20040;-67
2021/05/18 08:06:13;;;;;;;18.40;4.40;;;32.70;28.80;;;;;;5070915;28;20326;-68
2021/05/18 08:08:40;;;;;;;17.05;4.88;;;32.50;29.30;;;;;;5071866;28;20035;-68
2021/05/18 08:11:06;;;;;;;17.67;4.53;;;32.40;30.10;;;;;;5071285;28;20039;-68
2021/05/18 08:13:32;;;;;;;17.70;4.60;;;32.40;29.50;;;;;;5054809;28;20040;-68
2021/05/18 08:21:33;;;;;;;15.52;5.05;;;32.40;29.60;;;;;;5075361;28;20465;-67
2021/05/18 09:35:07;;;;;;;24.58;4.63;;;29.60;31.50;;;;;;5044525;28;20344;-66
2021/05/18 10:35:58;;;;;;;21.88;3.58;;;29.50;27.40;;;;;;5071168;28;20060;-67
2021/05/18 10:38:33;;;;;;;14.95;4.25;;;29.40;27.30;;;;;;5073065;28;20374;-66
2021/05/18 10:41:12;;;;;;;23.20;4.70;;;29.30;28.30;;;;;;5055021;28;20484;-65
2021/05/18 10:43:40;;;;;;;22.42;4.43;;;29.30;28.20;;;;;;5071441;28;20108;-66
2021/05/18 10:46:20;;;;;;;19.95;4.10;;;29.30;28.40;;;;;;5071553;28;20062;-66
2021/05/18 10:48:55;;;;;;;17.65;4.03;;;29.30;28.70;;;;;;5071732;28;20048;-65
2021/05/18 10:51:34;;;;;;;14.97;3.70;;;29.30;28.50;;;;;;5072685;28;20047;-67
2021/05/18 10:54:43;;;;;;;17.35;4.57;;;29.30;28.30;;;;;;5072780;28;20287;-66
2021/05/18 10:57:09;;;;;;;19.17;3.70;;;29.30;28.40;;;;;;5071656;28;20105;-66
2021/05/18 10:59:46;;;;;;;23.48;5.05;;;29.40;28.00;;;;;;5071221;28;20032;-67
2021/05/18 11:02:17;;;;;;;20.73;4.10;;;29.40;28.20;;;;;;5071629;28;20044;-67
2021/05/18 11:04:47;;;;;;;18.58;4.57;;;29.40;28.30;;;;;;5054648;28;20415;-66
2021/05/18 11:07:17;;;;;;;16.13;3.60;;;29.40;28.40;;;;;;5072439;28;20036;-67
2021/05/18 11:09:43;;;;;;;21.85;3.88;;;29.40;28.00;;;;;;5072363;28;20412;-66
2021/05/18 11:12:14;;;;;;;16.17;4.63;;;29.40;27.90;;;;;;5072351;28;20063;-67
2021/05/18 11:14:43;;;;;;;22.75;4.07;;;29.40;27.40;;;;;;5088171;28;20048;-67
2021/05/18 11:17:16;;;;;;;28.95;4.15;;;29.40;27.70;;;;;;5071279;28;20496;-66
2021/05/18 11:20:33;;;;;;;24.67;4.22;;;29.40;27.80;;;;;;5072548;28;20041;-66
2021/05/18 11:26:07;;;;;;;27.13;4.00;;;29.50;26.60;;;;;;5071359;28;20452;-66
2021/05/18 11:28:40;;;;;;;33.55;4.97;;;29.50;26.50;;;;;;5072580;28;20119;-66
2021/05/18 11:31:08;;;;;;;33.03;4.60;;;29.40;26.80;;;;;;5071001;28;20040;-67
2021/05/18 11:33:36;;;;;;;20.55;3.92;;;29.40;27.00;;;;;;5071053;28;20068;-67
2021/05/18 11:36:10;;;;;;;27.85;4.20;;;29.40;27.20;;;;;;5072580;28;20127;-66
2021/05/18 11:38:39;;;;;;;29.67;5.07;;;29.50;27.20;;;;;;5072589;28;20060;-68
2021/05/18 11:41:05;;;;;;;22.15;4.22;;;29.50;27.30;;;;;;5071136;28;20040;-66
2021/05/18 11:43:39;;;;;;;22.17;3.58;;;29.50;26.80;;;;;;5070931;28;20067;-67
2021/05/18 11:46:14;;;;;;;23.05;4.40;;;29.50;26.80;;;;;;5072059;28;20036;-65
2021/05/18 11:49:00;;;;;;;25.33;4.35;;;29.60;26.20;;;;;;5070979;28;20040;-66
2021/05/18 11:51:29;;;;;;;27.60;4.05;;;29.50;26.80;;;;;;5071960;28;20086;-67
2021/05/18 11:54:01;;;;;;;26.60;3.78;;;29.50;26.60;;;;;;5071502;28;20029;-66
2021/05/18 11:56:29;;;;;;;18.17;3.67;;;29.60;26.00;;;;;;5091470;28;20075;-66
2021/05/18 11:59:01;;;;;;;21.67;4.20;;;29.50;26.60;;;;;;5076267;28;20124;-66
2021/05/18 12:01:28;;;;;;;28.73;4.13;;;29.50;27.00;;;;;;5076006;28;20040;-67
2021/05/18 12:04:21;;;;;;;23.75;4.15;;;29.50;27.20;;;;;;5075833;28;20029;-67
2021/05/18 12:06:57;;;;;;;21.67;4.10;;;29.50;26.70;;;;;;5073698;28;20393;-67
2021/05/18 12:09:24;;;;;;;20.58;4.65;;;29.50;27.10;;;;;;5091102;28;20040;-69
2021/05/18 12:11:53;;;;;;;17.92;3.58;;;29.50;26.60;;;;;;5074572;28;20076;-66
2021/05/18 12:14:19;;;;;;;26.02;3.95;;;29.50;26.60;;;;;;5091203;28;20393;-64
2021/05/18 12:16:46;;;;;;;20.35;3.92;;;29.60;27.30;;;;;;5075691;28;20069;-65
2021/05/18 12:19:15;;;;;;;16.98;3.85;;;29.60;27.40;;;;;;5075732;28;20066;-64
2021/05/18 12:21:44;;;;;;;19.15;4.22;;;29.60;27.60;;;;;;5075619;28;20039;-65
2021/05/18 12:24:17;;;;;;;21.52;4.47;;;29.70;27.90;;;;;;5074224;28;20052;-65
2021/05/18 12:26:57;;;;;;;20.45;4.10;;;29.70;28.00;;;;;;5074552;28;20076;-64
2021/05/18 12:29:37;;;;;;;21.73;4.25;;;29.70;28.10;;;;;;5075516;28;20032;-65
2021/05/18 12:32:22;;;;;;;20.73;4.10;;;29.80;28.40;;;;;;5075625;28;20136;-65
2021/05/18 12:34:50;;;;;;;;;;;29.80;28.70;;;;;;5076014;28;20037;-65
2021/05/18 12:37:17;;;;;;;26.40;4.40;;;29.80;29.10;;;;;;5075654;28;20007;-65
2021/05/18 12:39:46;;;;;;;35.83;4.72;;;29.80;29.30;;;;;;5074088;28;20083;-66
2021/05/18 12:42:15;;;;;;;20.65;4.57;;;29.80;29.10;;;;;;5074183;28;20041;-65
2021/05/18 12:44:54;;;;;;;21.70;3.88;;;29.80;28.20;;;;;;5090974;28;20432;-65
2021/05/18 12:47:40;;;;;;;21.48;4.15;;;29.80;27.80;;;;;;5074892;28;20123;-66
2021/05/18 12:50:15;;;;;;;16.55;3.60;;;29.90;28.20;;;;;;5090698;28;20036;-66
2021/05/18 12:52:52;;;;;;;24.45;4.68;;;29.90;28.20;;;;;;5075196;28;20041;-65
2021/05/18 12:55:26;;;;;;;18.17;4.25;;;29.90;28.30;;;;;;5075138;28;20090;-65
2021/05/18 12:57:57;;;;;;;22.25;4.00;;;29.90;28.10;;;;;;5074978;28;20094;-65
2021/05/18 13:00:28;;;;;;;20.85;4.05;;;29.90;27.90;;;;;;5074645;28;20411;-68
2021/05/18 13:02:55;;;;;;;23.13;4.07;;;29.90;28.00;;;;;;5073453;28;20032;-63
2021/05/18 13:05:29;;;;;;;22.67;4.63;;;29.80;28.30;;;;;;5074226;28;20020;-64
2021/05/18 13:08:16;;;;;;;17.55;4.10;;;29.80;28.30;;;;;;5074641;28;20046;-65
2021/05/18 13:10:53;;;;;;;19.15;4.20;;;29.90;28.20;;;;;;5073896;28;20036;-68
2021/05/18 13:13:20;;;;;;;18.27;4.38;;;29.90;28.20;;;;;;5073251;28;20091;-66
2021/05/18 13:15:47;;;;;;;15.80;4.13;;;29.80;29.00;;;;;;5074688;28;20055;-67
2021/05/18 13:18:14;;;;;;;17.58;3.92;;;29.70;29.40;;;;;;5074219;28;20462;-69
2021/05/18 13:20:54;;;;;;;20.75;4.60;;;29.70;28.60;;;;;;5074488;28;20038;-70
2021/05/18 13:28:32;;;;;;;20.73;3.90;;;29.70;26.10;;;;;;5074296;28;20506;-70
2021/05/18 13:30:58;;;;;;;22.13;3.60;;;29.70;27.00;;;;;;5074239;28;20128;-70
2021/05/18 13:33:23;;;;;;;20.67;3.50;;;29.70;26.90;;;;;;5074110;28;20353;-70
2021/05/18 13:35:49;;;;;;;17.23;3.90;;;29.70;27.10;;;;;;5074407;28;20389;-69
2021/05/18 13:38:15;;;;;;;20.70;4.00;;;29.70;27.80;;;;;;5073796;28;20039;-70
2021/05/18 13:40:42;;;;;;;17.48;4.57;;;29.70;27.70;;;;;;5074180;28;20044;-69
2021/05/18 13:43:08;;;;;;;21.98;3.72;;;29.80;27.10;;;;;;5089710;28;20037;-71
2021/05/18 13:45:34;;;;;;;18.00;4.10;;;29.80;27.40;;;;;;5073567;28;20041;-69
2021/05/18 13:48:00;;;;;;;15.20;3.75;;;29.80;28.00;;;;;;5073662;28;20046;-72
2021/05/18 13:50:27;;;;;;;14.57;3.85;;;29.80;27.20;;;;;;5072439;28;20070;-72
2021/05/18 13:52:54;;;;;;;17.17;3.47;;;29.80;27.40;;;;;;5073948;28;20044;-72
2021/05/18 13:55:20;;;;;;;20.00;4.07;;;29.80;26.90;;;;;;5073832;28;20036;-72
2021/05/18 13:57:46;;;;;;;15.80;4.18;;;29.80;27.00;;;;;;5073782;28;20028;-72
2021/05/18 14:00:14;;;;;;;19.08;4.47;;;29.80;27.20;;;;;;5073528;28;20120;-72
2021/05/18 14:02:44;;;;;;;16.90;3.53;;;29.80;27.20;;;;;;5072243;28;20033;-72
2021/05/18 14:05:20;;;;;;;16.38;4.00;;;29.80;26.90;;;;;;5073386;28;20025;-71
2021/05/18 14:08:25;;;;;;;17.65;3.75;;;29.80;27.80;;;;;;5073223;28;20033;-75
2021/05/18 14:11:05;;;;;;;19.58;3.25;;;29.80;27.30;;;;;;5073347;28;20056;-70
2021/05/18 14:13:37;;;;;;;22.00;3.88;;;29.90;27.50;;;;;;5071968;28;20045;-69
2021/05/18 14:16:05;;;;;;;21.63;3.60;;;29.90;27.70;;;;;;5072925;28;20066;-66
2021/05/18 14:18:32;;;;;;;23.48;4.32;;;29.80;27.90;;;;;;5088520;28;20046;-66
2021/05/18 14:21:00;;;;;;;19.23;4.15;;;29.80;27.30;;;;;;5073119;28;20064;-68
2021/05/18 14:23:30;;;;;;;18.42;4.00;;;29.80;27.50;;;;;;5072910;28;20033;-71
2021/05/18 14:25:56;;;;;;;22.98;4.50;;;29.80;27.70;;;;;;5071971;28;20037;-68
2021/05/18 14:28:22;;;;;;;19.00;4.68;;;29.80;29.00;;;;;;5072450;28;20035;-67
2021/05/18 14:30:50;;;;;;;22.55;4.20;;;29.80;29.50;;;;;;5071888;28;20209;-67
2021/05/18 14:33:17;;;;;;;17.67;4.55;;;29.90;28.30;;;;;;5055146;28;20078;-66
2021/05/18 14:35:43;;;;;;;23.35;5.15;;;29.90;28.90;;;;;;5071714;28;20040;-69
2021/05/18 14:38:16;;;;;;;22.08;4.05;;;29.90;28.10;;;;;;5073259;28;20032;-67
2021/05/18 14:46:08;;;;;;;16.23;3.70;;;29.80;27.60;;;;;;5072749;28;20496;-71
2021/05/18 14:56:48;;;;;;;16.88;4.35;;;29.80;28.40;;;;;;5072461;28;20081;-72
2021/05/18 14:59:14;;;;;;;20.90;5.00;;;29.70;28.00;;;;;;5072717;28;20463;-72
2021/05/18 15:01:39;;;;;;;23.42;4.70;;;29.80;29.00;;;;;;5072919;28;20032;-71
2021/05/18 15:04:05;;;;;;;18.05;4.43;;;29.80;29.50;;;;;;5088059;28;20028;-71
2021/05/18 15:06:32;;;;;;;23.45;4.05;;;29.70;28.80;;;;;;5071438;28;20038;-72
2021/05/18 15:08:58;;;;;;;16.10;4.03;;;29.80;27.90;;;;;;5072565;28;20036;-71
2021/05/18 15:11:24;;;;;;;19.90;4.22;;;29.80;27.70;;;;;;5072312;28;20456;-70
2021/05/18 15:13:50;;;;;;;18.50;4.18;;;29.80;27.90;;;;;;5071753;28;20037;-71
2021/05/18 15:16:16;;;;;;;16.98;4.10;;;29.70;28.60;;;;;;5072298;28;20048;-72
2021/05/18 15:18:45;;;;;;;19.50;4.05;;;29.70;28.30;;;;;;5071116;28;20136;-72
2021/05/18 15:21:11;;;;;;;18.92;3.97;;;29.70;27.60;;;;;;5072627;28;20037;-73
2021/05/18 15:23:39;;;;;;;17.35;4.18;;;29.70;27.40;;;;;;5071035;28;20036;-72
2021/05/18 15:26:05;;;;;;;14.63;4.22;;;29.70;27.30;;;;;;5072233;28;20044;-73
2021/05/18 15:28:31;;;;;;;15.52;3.97;;;29.70;27.60;;;;;;5074454;28;20044;-71
2021/05/18 15:30:57;;;;;;;16.42;3.90;;;29.70;27.70;;;;;;5058334;28;20401;-71
2021/05/18 15:33:25;;;;;;;17.15;4.38;;;29.70;27.60;;;;;;5076037;28;20139;-71
2021/05/18 15:35:51;;;;;;;19.23;4.25;;;29.70;27.60;;;;;;5076178;28;20067;-71
2021/05/18 15:38:17;;;;;;;17.05;3.97;;;29.70;27.70;;;;;;5076239;28;20105;-72
2021/05/18 15:40:44;;;;;;;21.33;4.70;;;29.70;27.80;;;;;;5076208;28;20041;-70
2021/05/18 15:43:11;;;;;;;22.50;4.53;;;29.60;28.00;;;;;;5074917;28;20512;-71
2021/05/18 15:45:37;;;;;;;21.02;3.97;;;29.60;27.80;;;;;;5057939;28;20437;-70
2021/05/18 15:48:05;;;;;;;15.15;4.32;;;29.60;27.30;;;;;;5074679;28;20044;-71
2021/05/18 15:50:31;;;;;;;18.75;4.97;;;29.50;28.00;;;;;;5076097;28;20036;-71
2021/05/18 15:52:57;;;;;;;15.75;4.63;;;29.50;27.50;;;;;;5075800;28;20040;-71
2021/05/18 15:55:23;;;;;;;13.88;3.95;;;29.60;27.80;;;;;;5091563;28;20472;-71
2021/05/18 15:57:49;;;;;;;16.08;3.92;;;29.50;27.80;;;;;;5092167;28;20052;-71
2021/05/18 16:00:15;;;;;;;17.77;4.25;;;29.50;28.40;;;;;;5074714;28;20478;-71
2021/05/18 16:02:43;;;;;;;11.50;4.28;;;29.50;28.30;;;;;;5075938;28;20404;-71
2021/05/18 16:05:09;;;;;;;17.67;4.47;;;29.40;29.00;;;;;;5075646;28;20048;-71
2021/05/18 16:07:37;;;;;;;13.93;4.38;;;29.40;28.50;;;;;;5074420;28;20040;-71
2021/05/18 16:10:03;;;;;;;16.77;4.18;;;29.40;28.90;;;;;;5075528;28;20037;-71
2021/05/18 16:12:29;;;;;;;15.73;4.35;;;29.40;28.80;;;;;;5075466;28;20063;-73
2021/05/18 16:14:55;;;;;;;18.45;4.57;;;29.40;28.80;;;;;;5075740;28;20112;-71
2021/05/18 16:17:22;;;;;;;20.70;4.25;;;29.40;28.60;;;;;;5075413;28;20032;-73
2021/05/18 16:19:48;;;;;;;16.48;4.30;;;29.30;29.20;;;;;;5073932;28;20465;-71
2021/05/18 16:22:15;;;;;;;26.00;5.15;;;29.30;28.40;;;;;;5075483;28;20119;-71
2021/05/18 16:24:42;;;;;;;15.60;4.68;;;29.30;29.10;;;;;;5075246;28;20024;-70
2021/05/18 16:27:14;;;;;;;25.42;5.35;;;29.20;29.40;;;;;;5075054;28;20118;-70
2021/05/18 16:29:41;;;;;;;19.17;4.20;;;29.20;28.90;;;;;;5073983;28;20040;-69
2021/05/18 16:32:07;;;;;;;19.90;4.30;;;29.20;29.20;;;;;;5074939;28;20044;-71
2021/05/18 16:34:33;;;;;;;16.80;4.65;;;29.20;29.30;;;;;;5075186;28;20043;-71
2021/05/18 16:37:00;;;;;;;14.55;4.85;;;29.10;29.60;;;;;;5074739;28;20036;-71
2021/05/18 16:39:26;;;;;;;18.35;4.85;;;29.10;29.50;;;;;;5074589;28;20036;-70
2021/05/18 16:41:54;;;;;;;17.75;4.47;;;29.10;29.40;;;;;;5073559;28;20101;-71
2021/05/18 16:44:22;;;;;;;16.42;4.70;;;29.00;29.40;;;;;;5074736;28;20039;-72
2021/05/18 16:46:48;;;;;;;19.52;5.15;;;29.00;29.50;;;;;;5075082;28;20032;-71
2021/05/18 16:49:15;;;;;;;13.70;4.25;;;28.90;29.40;;;;;;5074749;28;20090;-71
2021/05/18 16:51:41;;;;;;;15.73;4.65;;;28.90;29.60;;;;;;5074594;28;20093;-71
2021/05/18 16:54:09;;;;;;;17.42;4.70;;;28.90;29.50;;;;;;5075125;28;20079;-71
2021/05/18 16:56:35;;;;;;;19.80;5.30;;;28.90;29.70;;;;;;5090331;28;20089;-71
2021/05/18 16:59:03;;;;;;;17.55;5.05;;;28.80;29.60;;;;;;5074312;28;20545;-70
2021/05/18 17:01:29;;;;;;;13.40;4.93;;;28.80;29.90;;;;;;5074541;28;20040;-71
2021/05/18 17:03:55;;;;;;;15.27;4.25;;;28.70;30.00;;;;;;5073031;28;20496;-68
2021/05/18 17:06:21;;;;;;;20.83;5.22;;;28.70;29.90;;;;;;5072782;28;20495;-68
2021/05/18 17:08:46;;;;;;;17.17;4.68;;;28.70;30.00;;;;;;5075204;28;20033;-70
2021/05/18 17:11:13;;;;;;;24.95;5.47;;;28.60;29.90;;;;;;5072954;28;20528;-65
2021/05/18 17:13:40;;;;;;;13.38;4.68;;;28.60;29.90;;;;;;5074532;28;20117;-69
2021/05/18 17:16:06;;;;;;;15.45;4.65;;;28.50;30.00;;;;;;5074210;28;20090;-69
2021/05/18 17:18:33;;;;;;;19.27;5.32;;;28.40;30.00;;;;;;5074254;28;20037;-70
2021/05/18 17:20:59;;;;;;;17.33;5.45;;;28.40;30.20;;;;;;5073798;28;20032;-68
2021/05/18 17:23:25;;;;;;;17.15;5.15;;;28.30;30.20;;;;;;5073656;28;20032;-74
2021/05/18 17:25:51;;;;;;;14.32;5.35;;;28.30;30.50;;;;;;5082101;28;20028;-69
2021/05/18 17:28:17;;;;;;;15.65;5.82;;;28.20;30.90;;;;;;5082522;28;20028;-69
2021/05/18 17:30:44;;;;;;;20.10;6.10;;;28.10;30.60;;;;;;5074073;28;20044;-71
2021/05/18 17:33:11;;;;;;;20.25;5.53;;;28.10;30.80;;;;;;5056034;28;20032;-68
2021/05/18 17:35:38;;;;;;;16.95;5.35;;;28.10;31.00;;;;;;5072749;28;20106;-67
2021/05/18 17:38:04;;;;;;;16.42;5.57;;;28.00;31.10;;;;;;5073799;28;20035;-68
2021/05/18 17:40:31;;;;;;;19.58;4.88;;;27.90;30.90;;;;;;5055999;28;20040;-68
2021/05/18 17:42:58;;;;;;;17.08;5.35;;;28.00;30.60;;;;;;5072735;28;20029;-73
2021/05/18 17:45:28;;;;;;;21.85;6.05;;;28.00;31.60;;;;;;5072659;28;20071;-71
2021/05/18 17:47:55;;;;;;;18.75;5.22;;;27.90;31.30;;;;;;5072253;28;20044;-69